Brush Prairie, Washington
Current Conditions -  °F | °C
As of 5:53 PM on Sunday 21 Dec 2014 (Local Time) from KVUO Reporting Station
Light Rain Light Rain  
Wind Chill: 51°   Ceiling: 3900
Heat Index: 51°   Visibility: 8mi
Dew Point: 49°   Wind: 0mph
Humidity: 92%   Direction: NA
Pressure: 30.14"   Gusts: NA
Location:  45.73°N, 122.55°W
Report Text: KVUO 220153Z AUTO 00000KT 8SM -RA FEW020 BKN039 OVC060 11/09 A3014 RMK AO2 RAE0056B15 SLP207 P0001 T01060094
Loading
Personal Weather Stations






























Interactive Weather Map New forecast layout! Learn more

10-Day Weather Forecast

Advertisements
Track Severe Weather on mobile